createdAt,value
2019-05-11T00:10:30.483Z,21.95
2019-05-11T00:25:38.258Z,16.77
2019-05-11T00:40:46.161Z,15.90
2019-05-11T00:55:53.331Z,17.67
2019-05-11T01:11:02.561Z,25.75
2019-05-11T01:26:10.404Z,19.65
2019-05-11T01:41:18.812Z,20.57
2019-05-11T01:56:25.827Z,23.18
2019-05-11T02:11:33.710Z,25.27
2019-05-11T02:26:41.211Z,30.25
2019-05-11T02:41:49.037Z,20.50
2019-05-11T02:56:57.239Z,14.58
2019-05-11T03:12:04.246Z,13.95
2019-05-11T03:27:12.325Z,13.18
2019-05-11T03:42:21.052Z,18.30
2019-05-11T03:57:28.064Z,15.28
2019-05-11T04:12:35.812Z,17.17
2019-05-11T04:27:45.292Z,13.68
2019-05-11T04:42:55.747Z,12.40
2019-05-11T04:58:01.123Z,19.82
2019-05-11T05:13:10.804Z,14.43
2019-05-11T05:28:17.902Z,12.40
2019-05-11T05:58:33.194Z,12.93
2019-05-11T06:13:45.287Z,13.90
2019-05-11T06:28:49.326Z,16.37
2019-05-11T06:44:02.008Z,17.37
2019-05-11T06:59:05.262Z,10.85
2019-05-11T07:14:20.677Z,7.65
2019-05-11T07:44:35.922Z,9.58
2019-05-11T07:59:35.120Z,7.58
2019-05-11T08:14:56.509Z,7.10
2019-05-11T08:29:51.042Z,3.08
2019-05-11T08:45:15.344Z,5.55
2019-05-11T09:00:09.482Z,3.60
2019-05-11T09:15:31.558Z,5.40
2019-05-11T09:30:25.488Z,3.52
2019-05-11T10:00:43.677Z,3.50
2019-05-11T10:16:03.602Z,2.27
2019-05-11T10:31:00.127Z,2.02
2019-05-11T11:01:15.012Z,1.70
2019-05-11T11:16:35.773Z,2.60
2019-05-11T11:31:29.899Z,2.47
2019-05-11T11:46:50.386Z,2.27
2019-05-11T12:01:48.539Z,1.92
2019-05-11T12:17:04.987Z,1.52
2019-05-11T12:32:05.007Z,2.30
2019-05-11T12:47:22.212Z,2.00
2019-05-11T13:02:22.560Z,3.47
2019-05-11T13:17:37.033Z,2.30
2019-05-11T13:32:39.899Z,2.47
2019-05-11T13:47:53.761Z,1.77
2019-05-11T14:02:58.586Z,2.67
2019-05-11T14:18:08.711Z,2.80
2019-05-11T14:33:14.620Z,4.28
2019-05-11T14:48:27.071Z,3.85
2019-05-11T15:03:32.861Z,2.75
2019-05-11T15:18:42.202Z,3.27
2019-05-11T15:33:49.001Z,4.53
2019-05-11T15:49:02.231Z,5.05
2019-05-11T16:04:05.962Z,3.52
2019-05-11T16:19:15.135Z,3.37
2019-05-11T16:34:21.612Z,5.05
2019-05-11T16:49:32.500Z,4.12
2019-05-11T17:04:40.047Z,7.10
2019-05-11T17:19:51.226Z,8.00
2019-05-11T17:34:59.386Z,11.40
2019-05-11T17:50:09.557Z,8.10
2019-05-11T18:05:17.840Z,8.53
2019-05-11T18:20:25.014Z,18.48
2019-05-11T18:35:31.924Z,20.27
2019-05-11T18:50:38.699Z,22.45
2019-05-11T19:05:48.246Z,22.45
2019-05-11T19:20:58.319Z,19.30
2019-05-11T19:36:07.783Z,29.70
2019-05-11T19:51:18.661Z,24.80
2019-05-11T20:06:28.076Z,23.18
2019-05-11T20:21:39.048Z,23.05
2019-05-11T20:36:58.528Z,34.25
2019-05-11T20:52:10.183Z,28.15
2019-05-11T21:07:19.840Z,33.73
2019-05-11T21:22:28.700Z,23.87
2019-05-11T21:37:39.239Z,28.75
2019-05-11T21:52:48.428Z,23.42
2019-05-11T22:07:58.273Z,22.13
2019-05-11T22:23:09.121Z,23.95
2019-05-11T22:38:15.724Z,19.10
2019-05-11T22:53:22.710Z,26.07
2019-05-11T23:08:29.717Z,28.40
2019-05-11T23:23:36.621Z,20.72
2019-05-11T23:38:43.319Z,27.22
2019-05-11T23:53:51.100Z,21.90
